Time;durP1;ratioP1;P1;durP2;ratioP2;P2;SDS_P1;SDS_P2;PMS_P1;PMS_P2;Temp;Humidity;BMP_temperature;BMP_pressure;BME280_temperature;BME280_humidity;BME280_pressure;Samples;Min_cycle;Max_cycle;Signal;HPM_P1;HPM_P2
2022/07/18 00:01:17;;;;;;;1.30;0.93;;;;;;;27.20;36.30;101454.27;1758156;81;21583;-81
2022/07/18 00:03:44;;;;;;;1.87;0.80;;;;;;;27.20;36.33;101459.06;1758353;80;21753;-81
2022/07/18 00:06:10;;;;;;;1.90;0.80;;;;;;;27.19;36.15;101448.47;1728057;81;21047;-81
2022/07/18 00:08:36;;;;;;;3.35;1.00;;;;;;;27.20;36.12;101457.67;1756442;81;21526;-81
2022/07/18 00:11:03;;;;;;;1.10;0.80;;;;;;;27.20;36.12;101458.45;1756834;81;21032;-82
2022/07/18 00:13:30;;;;;;;1.00;0.72;;;;;;;27.20;36.08;101460.46;1756874;81;21099;-81
2022/07/18 00:15:56;;;;;;;1.02;0.62;;;;;;;27.20;36.01;101452.08;1754707;81;21534;-82
2022/07/18 00:18:23;;;;;;;2.58;0.98;;;;;;;27.19;35.87;101455.45;1753880;80;21043;-82
2022/07/18 00:20:49;;;;;;;1.02;0.78;;;;;;;27.19;35.89;101448.47;1754088;80;21110;-81
2022/07/18 00:23:15;;;;;;;1.60;0.98;;;;;;;27.19;35.90;101452.66;1753744;80;21098;-82
2022/07/18 00:25:48;;;;;;;1.02;0.72;;;;;;;27.18;35.88;101455.21;1754192;80;21486;-81
2022/07/18 00:28:14;;;;;;;1.10;0.90;;;;;;;27.19;35.56;101458.83;1754139;81;21380;-81
2022/07/18 00:30:41;;;;;;;2.75;0.90;;;;;;;27.18;35.61;101452.42;1753592;80;21094;-82
2022/07/18 00:33:07;;;;;;;1.92;1.00;;;;;;;27.19;35.65;101449.05;1753931;80;21522;-82
2022/07/18 00:35:34;;;;;;;1.22;0.90;;;;;;;27.18;35.71;101447.41;1754102;80;21574;-81
2022/07/18 00:38:01;;;;;;;1.45;0.80;;;;;;;27.19;35.79;101454.63;1753845;80;21035;-82
2022/07/18 00:40:34;;;;;;;1.27;0.72;;;;;;;27.18;35.62;101452.42;1754010;80;21118;-81
2022/07/18 00:43:00;;;;;;;1.60;0.80;;;;;;;27.18;35.56;101454.39;1754337;80;21035;-81
2022/07/18 00:45:27;;;;;;;1.85;0.98;;;;;;;27.18;35.46;101457.19;1754006;80;21447;-82
2022/07/18 00:47:53;;;;;;;1.35;0.70;;;;;;;27.17;35.43;101467.54;1753973;80;20992;-82
2022/07/18 00:50:20;;;;;;;0.85;0.70;;;;;;;27.17;35.32;101470.91;1754015;80;21031;-82
2022/07/18 00:52:46;;;;;;;1.12;0.80;;;;;;;27.17;35.33;101471.73;1753734;80;21518;-81
2022/07/18 00:55:12;;;;;;;1.10;0.88;;;;;;;27.17;35.34;101477.89;1754115;80;21059;-81
2022/07/18 00:57:39;;;;;;;2.90;0.75;;;;;;;27.16;35.46;101477.08;1754105;80;20960;-81
2022/07/18 01:02:57;;;;;;;1.70;0.88;;;;;;;27.17;35.76;101473.70;1753782;80;21016;-81
2022/07/18 01:05:23;;;;;;;1.40;0.85;;;;;;;27.16;35.77;101476.26;1726056;81;21171;-81
2022/07/18 01:07:51;;;;;;;0.95;0.72;;;;;;;27.16;35.82;101477.66;1753709;80;21054;-81
2022/07/18 01:10:18;;;;;;;1.52;0.70;;;;;;;27.15;35.72;101472.67;1753952;80;21373;-81
2022/07/18 01:12:45;;;;;;;1.45;0.62;;;;;;;27.16;35.58;101477.66;1753652;81;21581;-81
2022/07/18 01:15:12;;;;;;;1.17;0.90;;;;;;;27.16;35.38;101481.84;1753831;80;21090;-81
2022/07/18 01:17:38;;;;;;;1.52;0.80;;;;;;;27.15;35.41;101478.27;1753532;80;21063;-81
2022/07/18 01:20:06;;;;;;;1.62;0.70;;;;;;;27.15;35.38;101478.27;1753386;79;21664;-81
2022/07/18 01:22:32;;;;;;;1.42;0.75;;;;;;;27.15;35.31;101476.87;1753704;80;21055;-81
2022/07/18 01:24:59;;;;;;;1.32;0.98;;;;;;;27.15;35.39;101479.66;1753608;80;21118;-80
2022/07/18 01:27:25;;;;;;;1.22;0.68;;;;;;;27.15;35.34;101473.25;1753387;80;21047;-81
2022/07/18 01:29:52;;;;;;;1.47;0.80;;;;;;;27.15;35.39;101477.44;1753748;80;21472;-80
2022/07/18 01:32:19;;;;;;;1.47;0.90;;;;;;;27.15;35.27;101478.84;1753629;80;21040;-81
2022/07/18 01:34:47;;;;;;;1.77;0.95;;;;;;;27.15;35.31;101478.84;1753635;81;20987;-80
2022/07/18 01:37:15;;;;;;;1.00;0.60;;;;;;;27.15;35.35;101480.23;1753459;81;21099;-81
2022/07/18 01:39:41;;;;;;;1.20;0.82;;;;;;;27.15;35.33;101481.05;1754153;80;21100;-81
2022/07/18 01:42:09;;;;;;;1.60;0.70;;;;;;;27.14;35.25;101491.98;1753787;80;21533;-80
2022/07/18 01:44:35;;;;;;;1.20;0.90;;;;;;;27.14;35.12;101493.38;1754398;80;21046;-81
2022/07/18 01:47:04;;;;;;;1.30;0.90;;;;;;;27.15;35.21;101500.61;1754036;81;21507;-81
2022/07/18 01:49:30;;;;;;;2.55;0.95;;;;;;;27.14;35.42;101496.17;1753938;81;21033;-81
2022/07/18 01:51:57;;;;;;;1.12;0.70;;;;;;;27.14;35.52;101498.97;1754102;81;21698;-81
2022/07/18 01:54:24;;;;;;;1.17;0.78;;;;;;;27.15;35.60;101492.80;1753794;81;21009;-82
2022/07/18 01:56:51;;;;;;;2.55;1.00;;;;;;;27.14;35.63;101496.75;1753791;81;21113;-81
2022/07/18 01:59:18;;;;;;;1.00;0.70;;;;;;;27.14;35.69;101496.75;1736980;81;21527;-82
2022/07/18 02:01:44;;;;;;;1.80;1.00;;;;;;;27.13;35.76;101497.33;1753617;81;21291;-81
2022/07/18 02:04:11;;;;;;;0.85;0.70;;;;;;;27.14;35.82;101502.34;1754055;81;21053;-81
2022/07/18 02:06:37;;;;;;;0.98;0.70;;;;;;;27.13;35.88;101503.49;1753652;80;21565;-81
2022/07/18 02:09:05;;;;;;;0.90;0.70;;;;;;;27.13;35.94;101509.90;1752688;81;21056;-81
2022/07/18 02:11:33;;;;;;;0.80;0.70;;;;;;;27.14;36.03;101517.70;1752171;80;21052;-81
2022/07/18 02:13:59;;;;;;;1.50;0.80;;;;;;;27.12;36.15;101515.82;1752426;81;21476;-81
2022/07/18 02:16:26;;;;;;;0.98;0.60;;;;;;;27.13;36.24;101524.45;1752324;81;21001;-81
2022/07/18 02:18:52;;;;;;;0.72;0.60;;;;;;;27.12;36.30;101524.20;1720333;81;21735;-82
2022/07/18 02:21:19;;;;;;;1.05;0.70;;;;;;;27.13;36.36;101527.23;1752286;81;21494;-81
2022/07/18 02:23:45;;;;;;;2.10;0.80;;;;;;;27.11;36.44;101522.02;1752389;81;21024;-81
2022/07/18 02:26:11;;;;;;;1.27;0.70;;;;;;;27.12;36.49;101522.23;1752123;81;21079;-81
2022/07/18 02:28:38;;;;;;;1.55;0.80;;;;;;;27.10;36.50;101523.17;1752366;81;21067;-81
2022/07/18 02:31:05;;;;;;;1.30;0.70;;;;;;;27.11;36.56;101531.79;1752672;81;21170;-81
2022/07/18 02:33:32;;;;;;;1.02;0.90;;;;;;;27.11;36.48;101530.39;1735764;81;21057;-81
2022/07/18 02:35:58;;;;;;;1.40;0.80;;;;;;;27.10;36.41;101530.73;1757101;80;21004;-81
2022/07/18 02:38:25;;;;;;;1.45;0.78;;;;;;;27.09;36.37;101527.12;1756844;81;21106;-81
2022/07/18 02:40:51;;;;;;;1.10;0.60;;;;;;;27.11;36.29;101528.18;1756826;80;21075;-81
2022/07/18 02:43:23;;;;;;;1.05;0.70;;;;;;;27.11;36.16;101529.58;1746650;80;21626;-81
2022/07/18 02:45:49;;;;;;;1.05;0.80;;;;;;;27.10;36.10;101535.73;1743598;82;21056;-81
2022/07/18 02:48:16;;;;;;;0.85;0.70;;;;;;;27.09;36.21;101535.50;1743404;81;21089;-80
2022/07/18 02:50:42;;;;;;;1.15;0.60;;;;;;;27.10;36.33;101542.72;1743618;80;21108;-81
2022/07/18 02:53:09;;;;;;;1.25;0.60;;;;;;;27.10;36.41;101544.12;1743406;82;21076;-82
2022/07/18 02:55:35;;;;;;;0.95;0.60;;;;;;;27.10;36.46;101543.30;1743349;82;21188;-82
2022/07/18 02:58:01;;;;;;;1.75;0.70;;;;;;;27.09;36.50;101548.06;1743475;81;21002;-81
2022/07/18 03:00:28;;;;;;;1.00;0.80;;;;;;;27.09;36.54;101545.27;1743731;80;21048;-81
2022/07/18 03:02:54;;;;;;;1.07;0.70;;;;;;;27.09;36.57;101560.64;1743365;81;21452;-81
2022/07/18 03:05:21;;;;;;;2.20;0.82;;;;;;;27.09;36.63;101550.03;1743650;80;21092;-81
2022/07/18 03:07:47;;;;;;;1.47;0.70;;;;;;;27.09;36.67;101548.06;1752904;81;21758;-81
2022/07/18 03:10:13;;;;;;;1.85;0.70;;;;;;;27.09;36.67;101546.67;1756799;81;21108;-81
2022/07/18 03:12:43;;;;;;;2.65;0.72;;;;;;;27.09;36.68;101541.08;1757092;81;21557;-81
2022/07/18 03:15:10;;;;;;;1.32;0.60;;;;;;;27.08;36.69;101546.42;1756616;80;21016;-81
2022/07/18 03:17:36;;;;;;;0.70;0.70;;;;;;;27.09;36.72;101555.63;1756607;81;21044;-81
2022/07/18 03:20:05;;;;;;;0.68;0.60;;;;;;;27.08;36.74;101559.00;1746982;80;21630;-81
2022/07/18 03:22:33;;;;;;;0.80;0.70;;;;;;;27.08;36.77;101563.19;1743681;80;21104;-81
2022/07/18 03:24:59;;;;;;;2.40;0.85;;;;;;;27.08;36.77;101571.56;1743370;80;21089;-81
2022/07/18 03:27:26;;;;;;;1.50;0.80;;;;;;;27.08;36.81;101570.17;1743510;80;21120;-81
2022/07/18 03:29:52;;;;;;;0.93;0.70;;;;;;;27.06;36.82;101566.92;1743621;81;21033;-81
2022/07/18 03:32:19;;;;;;;1.52;0.70;;;;;;;27.07;36.85;101572.75;1743377;81;22057;-81
2022/07/18 03:34:45;;;;;;;1.07;0.70;;;;;;;27.08;36.87;101569.34;1749090;80;21108;-81
2022/07/18 03:37:11;;;;;;;0.60;0.60;;;;;;;27.08;36.88;101582.73;1754357;80;21075;-81
2022/07/18 03:39:38;;;;;;;1.80;0.75;;;;;;;27.07;36.87;101578.34;1754147;81;21087;-82
2022/07/18 03:42:04;;;;;;;1.12;0.80;;;;;;;27.08;36.91;101575.75;1754595;80;21578;-81
2022/07/18 03:44:31;;;;;;;0.80;0.70;;;;;;;27.07;36.90;101581.12;1754394;81;21089;-81
2022/07/18 03:46:57;;;;;;;0.90;0.70;;;;;;;27.07;36.93;101581.12;1754133;80;21047;-81
2022/07/18 03:49:24;;;;;;;1.72;0.72;;;;;;;27.07;36.93;101578.91;1754409;80;21112;-81
2022/07/18 03:51:56;;;;;;;0.90;0.80;;;;;;;27.06;36.94;101580.88;1754518;80;21092;-81
2022/07/18 03:54:23;;;;;;;1.90;0.65;;;;;;;27.07;36.94;101586.71;1754006;80;21032;-81
2022/07/18 03:56:50;;;;;;;2.10;0.60;;;;;;;27.06;36.95;101588.44;1763499;80;21871;-81
2022/07/18 03:59:17;;;;;;;1.55;0.80;;;;;;;27.07;36.98;101589.50;1767943;81;21044;-81
2022/07/18 04:01:43;;;;;;;0.88;0.62;;;;;;;27.06;36.96;101596.25;1767776;79;21521;-81
2022/07/18 04:04:09;;;;;;;1.22;0.72;;;;;;;27.07;36.96;101599.86;1767994;79;21012;-81
2022/07/18 04:06:35;;;;;;;0.65;0.62;;;;;;;27.07;36.99;101597.89;1767698;81;21091;-81
2022/07/18 04:09:02;;;;;;;1.77;0.68;;;;;;;27.06;36.98;101597.64;1767745;81;21562;-81
2022/07/18 04:11:29;;;;;;;1.62;0.78;;;;;;;27.07;37.00;101597.06;1767803;81;21450;-81
2022/07/18 04:13:55;;;;;;;1.30;0.80;;;;;;;27.07;37.00;101599.86;1768010;81;21015;-82
2022/07/18 04:16:21;;;;;;;0.88;0.68;;;;;;;27.07;37.01;101601.25;1767474;81;21019;-81
2022/07/18 04:18:48;;;;;;;0.80;0.78;;;;;;;27.07;37.02;101598.46;1767996;81;21310;-81
2022/07/18 04:21:15;;;;;;;2.27;0.82;;;;;;;27.06;37.05;101601.83;1767985;81;21514;-81
2022/07/18 04:23:41;;;;;;;1.95;0.62;;;;;;;27.06;37.05;101601.83;1767472;81;21407;-81
2022/07/18 04:26:08;;;;;;;0.80;0.60;;;;;;;27.07;37.05;101605.45;1767815;81;21051;-81
2022/07/18 04:28:34;;;;;;;0.72;0.60;;;;;;;27.06;37.01;101613.00;1767620;81;21071;-81
2022/07/18 04:31:01;;;;;;;1.90;0.80;;;;;;;27.06;37.02;101618.59;1767803;81;21546;-80
2022/07/18 04:33:27;;;;;;;1.00;0.68;;;;;;;27.06;37.05;101613.58;1769300;79;21221;-82
2022/07/18 04:35:54;;;;;;;1.25;0.80;;;;;;;27.06;37.07;101617.20;1753240;80;21565;-80
2022/07/18 04:38:20;;;;;;;1.27;0.60;;;;;;;27.06;37.08;101619.16;1722679;82;21534;-81
2022/07/18 04:40:47;;;;;;;0.95;0.68;;;;;;;27.07;37.09;101630.58;1751397;80;20947;-81
2022/07/18 04:43:13;;;;;;;0.82;0.60;;;;;;;27.06;37.11;101625.57;1751305;80;20999;-81
2022/07/18 04:45:39;;;;;;;0.70;0.57;;;;;;;27.07;37.12;101626.39;1750978;80;21166;-81
2022/07/18 04:48:07;;;;;;;0.90;0.60;;;;;;;27.06;37.15;101631.16;1751198;81;21085;-81
2022/07/18 04:50:33;;;;;;;1.00;0.65;;;;;;;27.06;37.17;101637.32;1751064;81;21051;-81
2022/07/18 04:53:00;;;;;;;1.72;0.80;;;;;;;27.05;37.15;101639.30;1750869;80;21089;-81
2022/07/18 04:55:28;;;;;;;1.10;0.55;;;;;;;27.06;37.17;101640.11;1751264;80;20984;-81
2022/07/18 04:57:54;;;;;;;2.12;0.80;;;;;;;27.06;37.18;101644.30;1751232;80;21154;-81
2022/07/18 05:00:24;;;;;;;1.60;0.65;;;;;;;27.04;37.10;101647.42;1750924;80;21549;-81
2022/07/18 05:02:52;;;;;;;1.87;0.57;;;;;;;27.00;36.89;101650.67;1751482;80;21750;-81
2022/07/18 05:05:19;;;;;;;3.25;0.70;;;;;;;26.93;36.56;101647.61;1751006;80;21122;-81
2022/07/18 05:07:45;;;;;;;3.25;0.90;;;;;;;26.85;36.30;101649.08;1752725;80;21060;-80
2022/07/18 05:10:14;;;;;;;2.17;0.70;;;;;;;26.75;36.04;101649.69;1751488;80;21465;-80
2022/07/18 05:12:42;;;;;;;1.32;0.70;;;;;;;26.69;35.84;101657.22;1713172;82;21014;-80
2022/07/18 05:15:10;;;;;;;2.67;0.68;;;;;;;26.63;35.60;101658.55;1750735;80;20982;-81
2022/07/18 05:17:37;;;;;;;0.72;0.53;;;;;;;26.59;35.43;101664.58;1751184;80;20959;-81
2022/07/18 05:20:07;;;;;;;5.10;0.95;;;;;;;26.54;35.23;101663.38;1751234;81;21046;-81
2022/07/18 05:22:34;;;;;;;2.02;0.65;;;;;;;26.49;35.14;101657.41;1751204;80;21025;-81
2022/07/18 05:25:01;;;;;;;2.05;0.80;;;;;;;26.46;34.98;101661.45;1751278;80;21011;-81
2022/07/18 05:27:27;;;;;;;2.17;1.12;;;;;;;26.43;34.88;101660.16;1751098;81;21058;-80
2022/07/18 05:29:54;;;;;;;5.20;0.85;;;;;;;26.41;34.83;101665.82;1749044;80;20948;-81
2022/07/18 05:32:20;;;;;;;1.82;0.80;;;;;;;26.38;34.88;101663.14;1748383;80;21082;-81
2022/07/18 05:34:47;;;;;;;4.17;0.60;;;;;;;26.33;35.04;101665.55;1745992;81;21047;-81
2022/07/18 05:37:19;;;;;;;1.77;0.62;;;;;;;26.31;35.04;101665.62;1731724;81;21039;-80
2022/07/18 05:39:46;;;;;;;6.17;0.70;;;;;;;26.26;34.89;101675.03;1732252;81;21083;-81
2022/07/18 05:42:13;;;;;;;1.55;0.70;;;;;;;26.24;34.86;101677.31;1731798;81;21039;-80
2022/07/18 05:44:39;;;;;;;2.95;0.75;;;;;;;26.22;34.76;101677.42;1726243;81;21067;-80
2022/07/18 05:47:08;;;;;;;1.70;0.70;;;;;;;26.20;34.54;101674.95;1727416;81;21924;-81
2022/07/18 05:49:34;;;;;;;2.62;0.80;;;;;;;26.16;34.47;101673.96;1706660;81;21047;-80
2022/07/18 05:52:01;;;;;;;0.95;0.70;;;;;;;26.14;34.41;101677.64;1726304;81;21071;-81
2022/07/18 05:54:28;;;;;;;1.65;0.78;;;;;;;26.10;34.30;101669.70;1713021;81;21082;-80
2022/07/18 05:56:54;;;;;;;2.80;0.70;;;;;;;26.09;34.20;101675.64;1730615;81;21558;-80
2022/07/18 05:59:21;;;;;;;2.65;0.70;;;;;;;26.08;34.13;101677.61;1730672;80;21015;-81
2022/07/18 06:01:48;;;;;;;4.20;0.80;;;;;;;26.08;34.07;101685.16;1730763;81;21110;-80
2022/07/18 06:04:14;;;;;;;46.02;3.30;;;;;;;26.07;33.99;101688.52;1731420;80;21095;-81
2022/07/18 06:06:41;;;;;;;12.50;1.30;;;;;;;26.04;34.02;101689.19;1735989;81;21079;-80
2022/07/18 06:09:08;;;;;;;3.92;1.20;;;;;;;26.02;33.97;101691.48;1748058;80;21782;-81
2022/07/18 06:11:34;;;;;;;2.22;0.70;;;;;;;26.00;34.02;101690.19;1740596;80;21374;-81
2022/07/18 06:14:04;;;;;;;7.40;0.70;;;;;;;25.99;34.08;101691.33;1737697;80;21040;-82
2022/07/18 06:16:30;;;;;;;4.70;0.80;;;;;;;25.99;34.06;101694.12;1718486;80;21079;-81
2022/07/18 06:18:57;;;;;;;3.15;0.62;;;;;;;25.96;34.09;101692.01;1734759;80;21071;-78
2022/07/18 06:21:24;;;;;;;3.62;0.70;;;;;;;25.96;34.28;101693.41;1756360;80;21430;-81
2022/07/18 06:23:50;;;;;;;10.15;0.85;;;;;;;25.94;34.33;101692.33;1720354;81;21770;-81
2022/07/18 06:26:17;;;;;;;3.87;0.75;;;;;;;25.93;34.37;101692.91;1728209;81;21079;-81
2022/07/18 06:28:43;;;;;;;1.90;0.72;;;;;;;25.94;34.35;101690.94;1731852;81;21028;-81
2022/07/18 06:31:11;;;;;;;1.70;0.90;;;;;;;25.96;34.38;101681.67;1732315;81;21051;-81
2022/07/18 06:33:38;;;;;;;5.10;0.90;;;;;;;25.96;34.49;101687.83;1715371;82;21546;-81
2022/07/18 06:36:05;;;;;;;5.65;1.17;;;;;;;25.97;34.51;101688.87;1738026;81;21023;-81
2022/07/18 06:38:32;;;;;;;3.35;0.68;;;;;;;25.97;34.38;101693.05;1740175;81;21069;-82
2022/07/18 06:40:58;;;;;;;2.20;0.90;;;;;;;25.96;34.37;101687.83;1721863;81;21051;-82
2022/07/18 06:43:25;;;;;;;6.37;1.00;;;;;;;25.95;34.37;101691.19;1721792;81;21072;-81
2022/07/18 06:45:53;;;;;;;3.90;0.80;;;;;;;25.95;34.36;101677.24;1721437;82;21068;-82
2022/07/18 06:48:20;;;;;;;2.25;0.62;;;;;;;25.94;34.31;101685.36;1742915;81;21024;-82
2022/07/18 06:50:46;;;;;;;3.20;0.53;;;;;;;25.93;34.31;101687.33;1721527;81;21024;-81
2022/07/18 06:53:13;;;;;;;3.08;0.70;;;;;;;25.93;34.23;101687.11;1724662;81;21159;-81
2022/07/18 06:55:39;;;;;;;1.98;0.72;;;;;;;25.93;34.19;101688.50;1740608;80;21541;-81
2022/07/18 06:58:05;;;;;;;1.47;0.68;;;;;;;25.95;34.31;101684.78;1740904;81;21130;-80
2022/07/18 07:00:32;;;;;;;1.57;0.60;;;;;;;25.93;34.18;101676.74;1740897;82;21645;-81
2022/07/18 07:02:58;;;;;;;1.92;0.82;;;;;;;25.93;34.12;101681.75;1740991;82;21032;-81
2022/07/18 07:05:32;;;;;;;3.22;0.82;;;;;;;25.89;34.07;101680.78;1720881;81;21099;-81
2022/07/18 07:07:58;;;;;;;3.40;0.80;;;;;;;25.87;34.08;101678.09;1726739;81;21056;-81
2022/07/18 07:10:25;;;;;;;3.22;0.50;;;;;;;25.88;34.08;101679.73;1741269;82;21601;-81
2022/07/18 07:12:58;;;;;;;2.60;0.80;;;;;;;25.90;34.01;101681.60;1724296;81;21062;-80
2022/07/18 07:15:25;;;;;;;3.98;1.30;;;;;;;25.91;34.07;101683.25;1709957;82;21339;-81
2022/07/18 07:17:51;;;;;;;2.62;1.15;;;;;;;25.91;34.06;101686.03;1700424;82;21057;-82
2022/07/18 07:20:19;;;;;;;2.45;1.25;;;;;;;25.93;34.06;101679.53;1715762;83;21060;-81
2022/07/18 07:22:53;;;;;;;2.27;0.90;;;;;;;25.96;33.98;101685.86;1741964;81;21089;-81
2022/07/18 07:25:21;;;;;;;4.08;1.00;;;;;;;25.95;33.99;101687.58;1739566;81;21185;-81
2022/07/18 07:27:47;;;;;;;3.58;1.12;;;;;;;25.97;33.96;101681.11;1740136;82;21475;-82
2022/07/18 07:30:15;;;;;;;2.45;0.90;;;;;;;25.98;33.99;101675.75;1742352;82;21033;-81
2022/07/18 07:32:43;;;;;;;4.45;1.10;;;;;;;26.00;33.94;101685.44;1713967;82;21728;-82
2022/07/18 07:35:12;;;;;;;2.90;0.95;;;;;;;26.00;33.85;101672.06;1701312;81;21872;-82
2022/07/18 07:37:41;;;;;;;5.87;0.95;;;;;;;25.99;33.83;101673.20;1764225;78;22050;-82
2022/07/18 07:40:08;;;;;;;1.35;0.90;;;;;;;25.99;33.73;101676.00;1757810;80;20982;-81
2022/07/18 07:42:34;;;;;;;3.92;0.98;;;;;;;25.96;33.78;101680.28;1758021;80;21053;-81
2022/07/18 07:45:01;;;;;;;0.75;0.68;;;;;;;25.95;33.79;101674.45;1757703;80;21050;-82
2022/07/18 07:47:31;;;;;;;4.97;0.90;;;;;;;25.98;33.80;101674.35;1751638;80;21112;-81
2022/07/18 07:49:57;;;;;;;1.80;1.10;;;;;;;25.98;33.74;101668.77;1753301;80;22344;-81
2022/07/18 07:52:24;;;;;;;4.62;1.00;;;;;;;26.00;33.72;101665.91;1775435;78;21071;-81
2022/07/18 07:54:51;;;;;;;4.05;1.20;;;;;;;25.99;33.66;101662.05;1762205;78;21042;-81
2022/07/18 07:57:18;;;;;;;3.83;1.10;;;;;;;25.99;33.78;101671.23;1754867;80;21033;-81
2022/07/18 07:59:44;;;;;;;4.80;1.20;;;;;;;25.98;33.72;101664.02;1754849;80;21026;-82
2022/07/18 08:02:10;;;;;;;2.12;0.82;;;;;;;25.98;33.67;101668.20;1756524;80;21596;-81
2022/07/18 08:04:37;;;;;;;3.55;1.35;;;;;;;25.95;33.67;101661.09;1757409;81;21513;-81
2022/07/18 08:07:03;;;;;;;1.70;0.95;;;;;;;25.94;33.69;101657.48;1756193;80;21715;-80
2022/07/18 08:09:30;;;;;;;3.50;1.00;;;;;;;25.95;33.63;101656.33;1757707;80;20937;-80
2022/07/18 08:11:56;;;;;;;2.47;0.93;;;;;;;25.95;33.63;101661.09;1768482;79;21069;-81
2022/07/18 08:14:22;;;;;;;58.35;4.65;;;;;;;25.92;33.56;101655.61;1759012;80;21155;-80
2022/07/18 08:16:49;;;;;;;21.57;1.77;;;;;;;25.89;33.58;101659.05;1760254;79;21082;-81
2022/07/18 08:19:15;;;;;;;15.55;1.70;;;;;;;25.86;33.50;101658.33;1753471;81;21039;-80
2022/07/18 08:21:41;;;;;;;9.80;1.62;;;;;;;25.87;33.65;101661.37;1748945;80;21053;-81
2022/07/18 08:24:08;;;;;;;11.70;1.60;;;;;;;25.91;33.88;101651.19;1756824;80;21125;-81
2022/07/18 08:26:38;;;;;;;6.17;1.17;;;;;;;25.90;33.93;101646.75;1756455;80;21160;-81
2022/07/18 08:29:03;;;;;;;6.83;1.25;;;;;;;25.90;34.01;101655.94;1756747;80;21296;-80
2022/07/18 08:31:29;;;;;;;7.20;1.17;;;;;;;25.95;33.97;101653.55;1765941;78;21061;-80
2022/07/18 08:33:55;;;;;;;7.30;1.35;;;;;;;25.95;33.72;101649.36;1760482;78;21117;-81
2022/07/18 08:36:22;;;;;;;1.87;0.80;;;;;;;25.94;33.55;101653.30;1762943;80;20998;-80
2022/07/18 08:38:49;;;;;;;2.58;0.90;;;;;;;25.95;33.41;101654.11;1759471;78;21794;-81
2022/07/18 08:41:16;;;;;;;1.90;0.90;;;;;;;25.95;33.35;101647.97;1755119;80;21133;-81
2022/07/18 08:43:44;;;;;;;2.60;0.80;;;;;;;25.99;33.27;101649.51;1752912;80;21533;-81
2022/07/18 08:46:11;;;;;;;6.60;1.10;;;;;;;25.97;33.07;101645.64;1755719;80;21113;-81
2022/07/18 08:48:37;;;;;;;5.08;0.80;;;;;;;25.98;33.15;101646.47;1754013;80;21037;-81
2022/07/18 08:51:04;;;;;;;3.37;0.82;;;;;;;26.00;33.12;101646.39;1752613;80;21397;-81
2022/07/18 08:53:32;;;;;;;2.35;0.72;;;;;;;26.01;32.92;101651.40;1759923;80;21160;-81
2022/07/18 08:56:05;;;;;;;1.22;0.60;;;;;;;25.99;32.88;101647.54;1756695;80;21356;-82
2022/07/18 08:58:32;;;;;;;6.92;0.88;;;;;;;26.01;32.77;101645.82;1761353;80;21557;-81
2022/07/18 09:00:58;;;;;;;2.60;1.05;;;;;;;25.99;32.56;101647.54;1776744;78;21038;-82
2022/07/18 09:03:24;;;;;;;12.80;9.73;;;;;;;25.97;32.53;101640.67;1776458;78;21053;-83
2022/07/18 09:06:17;;;;;;;6.62;5.42;;;;;;;25.97;32.35;101640.67;1761176;80;21031;-81
2022/07/18 09:09:01;;;;;;;4.08;2.98;;;;;;;25.98;32.43;101638.92;1766773;80;21043;-81
2022/07/18 09:11:27;;;;;;;4.00;1.47;;;;;;;26.02;32.37;101633.49;1757418;81;20958;-81
2022/07/18 09:13:54;;;;;;;9.23;1.60;;;;;;;26.04;32.28;101633.98;1758427;80;21047;-80
2022/07/18 09:16:20;;;;;;;4.50;1.50;;;;;;;26.07;32.18;101638.31;1757101;80;22137;-81
2022/07/18 09:18:48;;;;;;;4.25;1.22;;;;;;;26.08;32.10;101625.19;1698212;81;21069;-81
2022/07/18 09:21:17;;;;;;;5.15;1.10;;;;;;;26.09;32.08;101624.88;1756217;81;21062;-81
2022/07/18 09:23:49;;;;;;;3.90;1.17;;;;;;;26.11;31.97;101625.33;1763871;80;21046;-81
2022/07/18 09:26:37;;;;;;;2.98;1.40;;;;;;;26.13;31.93;101631.41;1728319;80;21071;-80
2022/07/18 09:29:04;;;;;;;3.45;1.20;;;;;;;26.14;31.90;101628.84;1750432;80;21121;-81
2022/07/18 09:31:30;;;;;;;2.65;0.90;;;;;;;26.15;31.81;101622.69;1751171;78;21524;-80
2022/07/18 09:34:03;;;;;;;4.25;0.88;;;;;;;26.14;31.80;101613.50;1759182;80;21137;-81
2022/07/18 09:36:36;;;;;;;4.03;0.93;;;;;;;26.16;31.79;101618.17;1762393;79;21181;-81
2022/07/18 09:38:59;;;;;;;2.43;1.03;;;;;;;26.19;31.73;101617.50;1763480;79;21159;-80
2022/07/18 09:41:27;;;;;;;3.22;1.07;;;;;;;26.21;31.75;101616.63;1699300;83;21134;-81
2022/07/18 09:43:53;;;;;;;2.60;0.90;;;;;;;26.22;31.70;101619.67;1747738;80;21580;-80
2022/07/18 09:46:20;;;;;;;2.70;1.40;;;;;;;26.23;31.67;101614.30;1728231;81;21045;-80
2022/07/18 09:48:46;;;;;;;1.57;0.80;;;;;;;26.24;31.60;101617.34;1756934;80;21057;-79
2022/07/18 09:51:12;;;;;;;1.35;1.00;;;;;;;26.25;31.27;101607.83;1751440;80;21651;-79
2022/07/18 09:53:43;;;;;;;1.95;0.90;;;;;;;26.25;31.13;101612.02;1750255;80;21713;-80
2022/07/18 09:56:14;;;;;;;;;;;;;;;26.26;31.03;101605.28;1752777;80;21061;-80
2022/07/18 09:58:44;;;;;;;1.67;0.78;;;;;;;26.26;30.97;101601.10;1758515;79;20214;-80
2022/07/18 10:01:11;;;;;;;1.27;0.90;;;;;;;26.27;31.12;101598.53;1759909;80;21605;-80
2022/07/18 10:03:39;;;;;;;1.98;1.10;;;;;;;26.28;31.13;101602.95;1751764;80;21130;-79
2022/07/18 10:06:05;;;;;;;3.67;0.98;;;;;;;26.30;31.10;101602.06;1757864;80;21157;-80
2022/07/18 10:08:33;;;;;;;1.12;0.70;;;;;;;26.31;30.96;101603.67;1738353;81;21052;-80
2022/07/18 10:11:00;;;;;;;1.82;0.70;;;;;;;26.32;30.94;101601.12;1732406;81;21103;-80
2022/07/18 10:13:29;;;;;;;2.00;0.80;;;;;;;26.34;30.91;101599.41;1736049;81;21046;-80
2022/07/18 10:15:55;;;;;;;1.87;0.90;;;;;;;26.34;30.96;101597.44;1735134;81;21028;-80
2022/07/18 10:18:25;;;;;;;1.98;0.80;;;;;;;26.35;30.90;101583.70;1725089;82;21461;-80
2022/07/18 10:20:58;;;;;;;2.55;0.70;;;;;;;26.37;30.91;101583.38;1716283;82;21076;-80
2022/07/18 10:23:39;;;;;;;2.00;0.80;;;;;;;26.38;30.89;101587.81;1726656;81;21064;-81
2022/07/18 10:26:23;;;;;;;1.32;0.70;;;;;;;26.39;30.76;101580.26;1724920;81;21519;-81
2022/07/18 10:29:03;;;;;;;2.35;0.72;;;;;;;26.40;30.75;101583.27;1716386;81;21094;-80
2022/07/18 10:31:35;;;;;;;1.25;0.80;;;;;;;26.40;30.72;101579.08;1728219;81;22012;-80
2022/07/18 10:34:10;;;;;;;2.17;0.78;;;;;;;26.40;30.79;101577.69;1728425;82;21019;-81
2022/07/18 10:36:41;;;;;;;2.40;0.75;;;;;;;26.40;30.72;101578.50;1724385;81;21099;-80
2022/07/18 10:39:24;;;;;;;;;;;;;;;26.40;30.65;101576.29;1711782;82;21117;-80
2022/07/18 10:41:58;;;;;;;2.67;0.90;;;;;;;26.40;30.75;101571.53;1681883;83;20198;-80
2022/07/18 10:44:30;;;;;;;1.25;0.72;;;;;;;26.39;30.83;101556.55;1731221;81;21095;-80
2022/07/18 10:47:27;;;;;;;1.62;0.80;;;;;;;26.41;30.83;101570.95;1737380;81;21033;-81
2022/07/18 10:49:59;;;;;;;3.33;0.80;;;;;;;26.42;30.88;101563.66;1727155;81;22150;-81
2022/07/18 10:52:33;;;;;;;3.60;0.93;;;;;;;26.44;30.88;101567.51;1710336;81;21087;-81
2022/07/18 10:55:18;;;;;;;1.40;0.70;;;;;;;26.44;30.81;101566.91;1724209;81;21016;-82
2022/07/18 10:57:56;;;;;;;0.85;0.65;;;;;;;26.44;30.77;101556.34;1723091;81;21124;-81
2022/07/18 11:00:30;;;;;;;1.80;0.78;;;;;;;26.45;30.82;101557.95;1727814;81;21048;-82
2022/07/18 11:03:10;;;;;;;0.88;0.53;;;;;;;26.46;30.81;101555.41;1731046;80;21067;-82
2022/07/18 11:05:46;;;;;;;1.65;0.90;;;;;;;26.45;30.86;101546.22;1728789;81;21143;-82
2022/07/18 11:08:18;;;;;;;2.12;1.05;;;;;;;26.46;30.74;101549.83;1729320;81;21037;-82
2022/07/18 11:10:51;;;;;;;2.77;0.90;;;;;;;26.46;30.64;101542.28;1719393;81;21141;-81
2022/07/18 11:13:39;;;;;;;2.77;0.90;;;;;;;26.46;30.58;101540.89;1727830;80;21059;-82
2022/07/18 11:16:15;;;;;;;1.95;1.00;;;;;;;26.49;30.58;101544.39;1725856;81;21507;-81
2022/07/18 11:18:48;;;;;;;0.98;0.72;;;;;;;26.51;30.67;101546.84;1709268;82;20964;-81
2022/07/18 11:21:29;;;;;;;3.42;0.80;;;;;;;26.50;30.67;101541.84;1729139;81;21047;-81
2022/07/18 11:24:09;;;;;;;1.90;0.90;;;;;;;26.52;30.67;101533.14;1725038;81;22265;-81
2022/07/18 11:26:37;;;;;;;2.17;0.90;;;;;;;26.53;30.68;101523.59;1727921;80;21063;-81
2022/07/18 11:29:12;;;;;;;5.85;1.07;;;;;;;26.54;30.59;101514.88;1747260;80;21086;-79
2022/07/18 11:31:52;;;;;;;1.00;0.80;;;;;;;26.54;30.49;101521.86;1718258;81;21098;-79